Webcam Flughafen St.Gallen-Altenrhein

Live-Bilder und Zeitraffer LSZR / ACH.

 

Live aus Altenrhein
LIVE
LSZR 290350Z AUTO 24011G30KT 180V280 9999 BKN031 04/00 Q1009
Zeitraffer heute
2020-01-29 00:14:00
LSZR 282250Z AUTO 26004KT 200V320 9999 FEW060 SCT070 04/00 Q1007